createdAt,value
2017-05-18T00:00:16.395Z,66.10
2017-05-18T00:02:43.447Z,66.00
2017-05-18T00:05:10.802Z,66.20
2017-05-18T00:07:38.080Z,66.30
2017-05-18T00:10:04.970Z,66.30
2017-05-18T00:12:32.350Z,65.90
2017-05-18T00:14:59.631Z,66.60
2017-05-18T00:17:26.554Z,66.60
2017-05-18T00:19:53.882Z,66.60
2017-05-18T00:22:21.258Z,66.80
2017-05-18T00:24:48.133Z,66.80
2017-05-18T00:27:15.450Z,66.90
2017-05-18T00:29:42.827Z,66.90
2017-05-18T00:32:10.112Z,66.90
2017-05-18T00:34:37.029Z,66.90
2017-05-18T00:37:04.319Z,67.10
2017-05-18T00:39:32.021Z,67.50
2017-05-18T00:41:58.953Z,67.50
2017-05-18T00:44:26.222Z,68.00
2017-05-18T00:46:53.595Z,68.00
2017-05-18T00:49:21.050Z,67.80
2017-05-18T00:51:48.333Z,67.90
2017-05-18T00:54:15.614Z,68.20
2017-05-18T00:56:42.615Z,68.20
2017-05-18T00:59:09.967Z,69.00
2017-05-18T01:01:37.244Z,68.90
2017-05-18T01:04:04.554Z,68.70
2017-05-18T01:06:31.955Z,68.60
2017-05-18T01:08:59.278Z,68.80
2017-05-18T01:11:26.645Z,68.40
2017-05-18T01:13:53.929Z,68.50
2017-05-18T01:16:21.255Z,68.50
2017-05-18T01:18:48.561Z,68.80
2017-05-18T01:21:15.838Z,68.80
2017-05-18T01:23:42.814Z,68.80
2017-05-18T01:26:10.089Z,69.10
2017-05-18T01:28:37.415Z,69.20
2017-05-18T01:31:04.758Z,69.30
2017-05-18T01:33:32.034Z,69.40
2017-05-18T01:35:59.310Z,69.60
2017-05-18T01:38:26.645Z,69.40
2017-05-18T01:40:53.918Z,69.30
2017-05-18T01:43:20.798Z,69.30
2017-05-18T01:45:48.117Z,69.40
2017-05-18T01:48:15.395Z,69.50
2017-05-18T01:50:42.285Z,69.50
2017-05-18T01:53:09.646Z,69.80
2017-05-18T01:55:36.923Z,70.10
2017-05-18T01:58:04.204Z,70.30
2017-05-18T02:00:31.890Z,70.40
2017-05-18T02:02:59.164Z,70.70
2017-05-18T02:05:26.442Z,70.70
2017-05-18T02:07:53.782Z,70.70
2017-05-18T02:10:21.070Z,70.60
2017-05-18T02:12:48.394Z,70.80
2017-05-18T02:15:15.319Z,70.80
2017-05-18T02:17:42.203Z,70.70
2017-05-18T02:20:09.546Z,70.70
2017-05-18T02:22:36.901Z,70.60
2017-05-18T02:25:04.195Z,70.60
2017-05-18T02:27:31.471Z,70.80
2017-05-18T02:29:58.795Z,70.90
2017-05-18T02:32:25.679Z,70.90
2017-05-18T02:34:53.055Z,70.80
2017-05-18T02:37:20.421Z,70.80
2017-05-18T02:39:47.302Z,70.80
2017-05-18T02:42:14.581Z,70.70
2017-05-18T02:44:41.502Z,70.80
2017-05-18T02:47:08.794Z,71.10
2017-05-18T02:49:36.065Z,71.10
2017-05-18T02:52:03.385Z,71.30
2017-05-18T02:54:30.669Z,71.30
2017-05-18T02:56:57.976Z,71.80
2017-05-18T02:59:25.798Z,71.40
2017-05-18T03:01:53.071Z,71.60
2017-05-18T03:04:20.359Z,71.70
2017-05-18T03:06:48.058Z,71.40
2017-05-18T03:09:15.382Z,71.60
2017-05-18T03:11:43.042Z,71.60
2017-05-18T03:14:09.965Z,71.60
2017-05-18T03:16:37.296Z,72.10
2017-05-18T03:19:04.673Z,72.30
2017-05-18T03:21:31.987Z,72.40
2017-05-18T03:23:59.353Z,72.30
2017-05-18T03:26:26.636Z,72.00
2017-05-18T03:28:53.949Z,72.00
2017-05-18T03:31:21.321Z,72.30
2017-05-18T03:33:48.603Z,72.50
2017-05-18T03:36:16.038Z,72.60
2017-05-18T03:38:43.319Z,72.40
2017-05-18T03:41:10.596Z,72.30
2017-05-18T03:43:38.319Z,73.10
2017-05-18T03:46:05.669Z,72.90
2017-05-18T03:48:32.549Z,72.90
2017-05-18T03:51:00.378Z,73.00
2017-05-18T03:53:27.743Z,72.60
2017-05-18T03:55:55.018Z,72.70
2017-05-18T03:58:22.331Z,72.70
2017-05-18T04:00:49.806Z,72.80
2017-05-18T04:03:17.154Z,72.80
2017-05-18T04:05:44.425Z,72.70
2017-05-18T04:08:11.761Z,72.70
2017-05-18T04:10:39.092Z,72.80
2017-05-18T04:13:06.482Z,72.90
2017-05-18T04:15:33.835Z,72.70
2017-05-18T04:18:00.780Z,72.70
2017-05-18T04:20:28.058Z,72.70
2017-05-18T04:22:55.395Z,72.80
2017-05-18T04:25:22.721Z,72.60
2017-05-18T04:27:49.606Z,72.60
2017-05-18T04:30:16.947Z,72.50
2017-05-18T04:32:43.875Z,72.40
2017-05-18T04:35:11.221Z,72.30
2017-05-18T04:37:38.603Z,72.50
2017-05-18T04:40:05.968Z,72.40
2017-05-18T04:42:33.310Z,72.40
2017-05-18T04:45:00.675Z,72.10
2017-05-18T04:47:27.630Z,72.10
2017-05-18T04:49:54.979Z,71.50
2017-05-18T04:52:22.334Z,71.70
2017-05-18T04:54:49.643Z,71.40
2017-05-18T04:57:17.287Z,71.10
2017-05-18T04:59:44.710Z,71.50
2017-05-18T05:02:11.997Z,71.90
2017-05-18T05:04:39.354Z,71.20
2017-05-18T05:07:06.670Z,71.10
2017-05-18T05:09:33.943Z,70.90
2017-05-18T05:12:01.281Z,70.90
2017-05-18T05:14:28.675Z,70.90
2017-05-18T05:16:55.995Z,70.50
2017-05-18T05:19:23.274Z,70.60
2017-05-18T05:21:50.640Z,70.70
2017-05-18T05:24:18.004Z,70.30
2017-05-18T05:26:45.653Z,70.30
2017-05-18T05:29:12.602Z,70.30
2017-05-18T05:31:39.936Z,69.80
2017-05-18T05:34:07.214Z,69.80
2017-05-18T05:36:34.604Z,69.50
2017-05-18T05:39:01.887Z,69.60
2017-05-18T05:41:29.196Z,69.90
2017-05-18T05:43:57.086Z,69.80
2017-05-18T05:46:24.405Z,69.80
2017-05-18T05:48:51.728Z,69.30
2017-05-18T05:51:19.079Z,69.20
2017-05-18T05:53:46.350Z,69.00
2017-05-18T05:56:13.621Z,68.50
2017-05-18T05:58:40.571Z,68.50
2017-05-18T06:01:07.849Z,68.90
2017-05-18T06:03:35.561Z,68.60
2017-05-18T06:06:02.878Z,68.00
2017-05-18T06:08:30.163Z,68.10
2017-05-18T06:10:57.445Z,67.90
2017-05-18T06:13:24.770Z,67.80
2017-05-18T06:15:51.717Z,67.80
2017-05-18T06:18:18.605Z,67.10
2017-05-18T06:20:45.579Z,66.80
2017-05-18T06:23:12.854Z,67.20
2017-05-18T06:25:39.746Z,67.20
2017-05-18T06:28:07.169Z,67.00
2017-05-18T06:30:34.478Z,67.20
2017-05-18T06:33:02.122Z,67.20
2017-05-18T06:35:29.453Z,67.20
2017-05-18T06:37:56.794Z,67.10
2017-05-18T06:40:23.779Z,67.10
2017-05-18T06:42:50.701Z,66.90
2017-05-18T06:45:18.045Z,66.70
2017-05-18T06:47:45.329Z,66.70
2017-05-18T06:50:12.659Z,66.50
2017-05-18T06:52:39.955Z,66.20
2017-05-18T06:55:07.606Z,66.40
2017-05-18T06:57:34.925Z,66.80
2017-05-18T07:00:02.212Z,66.20
2017-05-18T07:02:29.492Z,65.40
2017-05-18T07:04:57.253Z,65.30
2017-05-18T07:07:25.003Z,65.60
2017-05-18T07:09:52.361Z,65.70
2017-05-18T07:12:19.784Z,65.50
2017-05-18T07:14:47.054Z,65.40
2017-05-18T07:17:14.332Z,65.40
2017-05-18T07:19:42.022Z,65.30
2017-05-18T07:22:08.932Z,65.30
2017-05-18T07:24:36.214Z,65.40
2017-05-18T07:27:03.913Z,65.30
2017-05-18T07:29:31.191Z,64.80
2017-05-18T07:31:58.521Z,64.20
2017-05-18T07:34:25.462Z,64.20
2017-05-18T07:36:52.738Z,63.60
2017-05-18T07:39:20.015Z,62.90
2017-05-18T07:41:47.434Z,63.00
2017-05-18T07:44:14.722Z,64.00
2017-05-18T07:46:42.393Z,63.60
2017-05-18T07:49:09.714Z,63.10
2017-05-18T07:51:36.987Z,63.80
2017-05-18T07:54:04.257Z,64.50
2017-05-18T07:56:31.597Z,63.70
2017-05-18T07:58:58.869Z,63.70
2017-05-18T08:01:26.590Z,63.10
2017-05-18T08:03:53.536Z,63.10
2017-05-18T08:06:20.890Z,62.60
2017-05-18T08:08:48.162Z,62.50
2017-05-18T08:11:15.497Z,62.10
2017-05-18T08:13:42.772Z,62.30
2017-05-18T08:16:10.110Z,62.40
2017-05-18T08:18:37.430Z,62.40
2017-05-18T08:21:04.698Z,61.80
2017-05-18T08:23:31.581Z,61.80
2017-05-18T08:25:58.927Z,61.90
2017-05-18T08:28:26.278Z,61.60
2017-05-18T08:30:53.578Z,61.70
2017-05-18T08:33:21.262Z,61.10
2017-05-18T08:35:48.546Z,60.90
2017-05-18T08:38:15.899Z,60.40
2017-05-18T08:40:43.258Z,60.40
2017-05-18T08:43:10.613Z,60.40
2017-05-18T08:45:37.898Z,59.90
2017-05-18T08:48:05.210Z,59.90
2017-05-18T08:50:32.086Z,59.90
2017-05-18T08:52:59.405Z,59.00
2017-05-18T08:55:26.379Z,59.00
2017-05-18T08:57:53.734Z,59.20
2017-05-18T09:00:21.055Z,59.40
2017-05-18T09:02:48.322Z,59.80
2017-05-18T09:05:15.690Z,59.90
2017-05-18T09:07:42.623Z,59.90
2017-05-18T09:10:10.002Z,60.70
2017-05-18T09:12:37.351Z,60.80
2017-05-18T09:15:04.299Z,60.80
2017-05-18T09:17:31.573Z,60.80
2017-05-18T09:19:58.848Z,60.30
2017-05-18T09:22:25.792Z,60.30
2017-05-18T09:24:53.074Z,60.40
2017-05-18T09:27:20.354Z,60.80
2017-05-18T09:29:47.757Z,60.60
2017-05-18T09:32:15.036Z,60.50
2017-05-18T09:34:42.357Z,60.50
2017-05-18T09:37:09.625Z,60.90
2017-05-18T09:39:36.901Z,60.70
2017-05-18T09:42:04.261Z,60.80
2017-05-18T09:44:31.550Z,61.20
2017-05-18T09:46:58.491Z,61.20
2017-05-18T09:49:25.430Z,61.40
2017-05-18T09:51:52.796Z,62.30
2017-05-18T09:54:20.078Z,62.80
2017-05-18T09:56:47.410Z,63.40
2017-05-18T09:59:14.709Z,64.10
2017-05-18T10:01:42.422Z,64.40
2017-05-18T10:04:09.786Z,66.20
2017-05-18T10:06:37.147Z,66.40
2017-05-18T10:09:04.529Z,66.20
2017-05-18T10:11:31.954Z,66.10
2017-05-18T10:13:58.934Z,66.00
2017-05-18T10:16:25.817Z,66.10
2017-05-18T10:18:53.198Z,65.90
2017-05-18T10:21:20.582Z,65.60
2017-05-18T10:23:47.474Z,65.60
2017-05-18T10:26:14.782Z,65.20
2017-05-18T10:28:42.106Z,64.10
2017-05-18T10:31:08.980Z,64.10
2017-05-18T10:33:36.319Z,64.40
2017-05-18T10:36:03.607Z,64.00
2017-05-18T10:38:30.887Z,63.90
2017-05-18T10:40:58.208Z,64.70
2017-05-18T10:43:25.479Z,63.90
2017-05-18T10:45:53.129Z,64.80
2017-05-18T10:48:20.441Z,65.10
2017-05-18T10:50:47.332Z,65.10
2017-05-18T10:53:14.644Z,65.40
2017-05-18T10:55:41.918Z,65.60
2017-05-18T10:58:09.261Z,65.30
2017-05-18T11:00:36.605Z,66.00
2017-05-18T11:03:03.886Z,66.30
2017-05-18T11:05:31.167Z,66.40
2017-05-18T11:07:58.098Z,66.40
2017-05-18T11:10:24.977Z,66.50
2017-05-18T11:12:51.862Z,66.40
2017-05-18T11:15:19.202Z,65.80
2017-05-18T11:17:46.158Z,65.80
2017-05-18T11:20:13.514Z,67.00
2017-05-18T11:22:40.830Z,67.60
2017-05-18T11:25:08.107Z,68.50
2017-05-18T11:27:35.394Z,68.30
2017-05-18T11:30:02.875Z,68.30
2017-05-18T11:32:30.145Z,68.10
2017-05-18T11:34:57.794Z,67.60
2017-05-18T11:37:25.215Z,67.20
2017-05-18T11:39:52.593Z,67.10
2017-05-18T11:42:19.922Z,67.20
2017-05-18T11:44:47.238Z,67.20
2017-05-18T11:47:14.945Z,66.60
2017-05-18T11:49:42.223Z,65.80
2017-05-18T11:52:09.566Z,65.40
2017-05-18T11:54:36.856Z,65.90
2017-05-18T11:57:04.507Z,66.20
2017-05-18T11:59:31.826Z,66.10
2017-05-18T12:01:59.182Z,66.30
2017-05-18T12:04:26.533Z,66.70
2017-05-18T12:06:53.889Z,66.50
2017-05-18T12:09:21.188Z,66.40
2017-05-18T12:11:48.507Z,66.90
2017-05-18T12:14:15.837Z,67.40
2017-05-18T12:16:43.215Z,67.80
2017-05-18T12:19:10.501Z,68.00
2017-05-18T12:21:37.525Z,68.00
2017-05-18T12:24:04.802Z,68.20
2017-05-18T12:26:32.126Z,67.10
2017-05-18T12:28:59.446Z,67.80
2017-05-18T12:31:27.100Z,68.30
2017-05-18T12:33:54.385Z,68.60
2017-05-18T12:36:21.713Z,70.30
2017-05-18T12:38:49.363Z,71.10
2017-05-18T12:41:16.643Z,70.60
2017-05-18T12:43:43.957Z,70.20
2017-05-18T12:46:10.833Z,70.10
2017-05-18T12:48:38.535Z,68.50
2017-05-18T12:51:05.853Z,68.10
2017-05-18T12:53:33.134Z,68.90
2017-05-18T12:56:00.417Z,69.10
2017-05-18T12:58:27.738Z,69.00
2017-05-18T13:00:55.017Z,69.10
2017-05-18T13:03:22.303Z,68.40
2017-05-18T13:05:49.620Z,68.40
2017-05-18T13:08:16.905Z,68.00
2017-05-18T13:10:44.190Z,68.30
2017-05-18T13:13:11.508Z,68.00
2017-05-18T13:15:38.782Z,67.60
2017-05-18T13:18:06.441Z,67.20
2017-05-18T13:20:33.381Z,67.20
2017-05-18T13:23:00.840Z,67.00
2017-05-18T13:25:28.112Z,66.60
2017-05-18T13:27:55.860Z,66.70
2017-05-18T13:30:23.287Z,66.90
2017-05-18T13:32:50.558Z,66.40
2017-05-18T13:35:17.497Z,66.40
2017-05-18T13:37:44.774Z,66.70
2017-05-18T13:40:11.651Z,66.70
2017-05-18T13:42:38.995Z,66.90
2017-05-18T13:45:06.654Z,66.60
2017-05-18T13:47:33.929Z,65.60
2017-05-18T13:50:00.870Z,65.60
2017-05-18T13:52:28.192Z,65.00
2017-05-18T13:54:55.923Z,64.60
2017-05-18T13:57:23.251Z,64.40
2017-05-18T13:59:50.525Z,64.50
2017-05-18T14:02:17.921Z,64.40
2017-05-18T14:04:45.262Z,64.40
2017-05-18T14:07:12.542Z,63.60
2017-05-18T14:09:40.196Z,62.90
2017-05-18T14:12:07.145Z,62.90
2017-05-18T14:14:34.418Z,62.70
2017-05-18T14:17:02.122Z,62.20
2017-05-18T14:19:29.457Z,62.50
2017-05-18T14:21:56.738Z,62.30
2017-05-18T14:24:24.017Z,61.60
2017-05-18T14:26:51.337Z,61.10
2017-05-18T14:29:18.632Z,61.10
2017-05-18T14:31:45.911Z,61.90
2017-05-18T14:34:13.608Z,61.50
2017-05-18T14:36:40.508Z,61.50
2017-05-18T14:39:07.386Z,61.80
2017-05-18T14:41:34.761Z,61.50
2017-05-18T14:44:01.712Z,61.50
2017-05-18T14:46:28.995Z,61.20
2017-05-18T14:48:56.391Z,61.80
2017-05-18T14:51:23.708Z,61.90
2017-05-18T14:53:51.002Z,62.10
2017-05-18T14:56:18.386Z,62.00
2017-05-18T14:58:45.670Z,62.40
2017-05-18T15:01:12.943Z,62.50
2017-05-18T15:03:39.870Z,62.50
2017-05-18T15:06:07.198Z,62.30
2017-05-18T15:08:34.101Z,62.30
2017-05-18T15:11:01.423Z,62.20
2017-05-18T15:13:28.322Z,62.20
2017-05-18T15:15:55.594Z,62.20
2017-05-18T15:18:22.918Z,62.30
2017-05-18T15:20:50.198Z,61.70
2017-05-18T15:23:17.481Z,61.20
2017-05-18T15:25:44.809Z,61.60
2017-05-18T15:28:12.103Z,61.60
2017-05-18T15:30:39.416Z,61.80
2017-05-18T15:33:06.768Z,62.20
2017-05-18T15:35:34.906Z,62.50
2017-05-18T15:38:02.553Z,62.50
2017-05-18T15:40:29.865Z,62.80
2017-05-18T15:42:57.166Z,62.80
2017-05-18T15:45:24.471Z,62.90
2017-05-18T15:47:51.845Z,62.70
2017-05-18T15:50:19.186Z,60.80
2017-05-18T15:52:46.462Z,61.00
2017-05-18T15:55:13.781Z,60.60
2017-05-18T15:57:40.666Z,60.60
2017-05-18T16:00:07.938Z,62.10
2017-05-18T16:02:35.266Z,61.90
2017-05-18T16:05:02.556Z,61.90
2017-05-18T16:07:30.223Z,61.40
2017-05-18T16:09:57.909Z,60.20
2017-05-18T16:12:24.798Z,60.20
2017-05-18T16:14:52.166Z,60.90
2017-05-18T16:17:19.478Z,61.50
2017-05-18T16:19:46.894Z,60.70
2017-05-18T16:22:14.162Z,60.30
2017-05-18T16:24:41.865Z,60.10
2017-05-18T16:27:09.138Z,59.80
2017-05-18T16:29:36.821Z,59.50
2017-05-18T16:32:03.750Z,59.50
2017-05-18T16:34:31.082Z,59.40
2017-05-18T16:36:58.359Z,59.80
2017-05-18T16:39:25.742Z,60.20
2017-05-18T16:41:53.382Z,60.60
2017-05-18T16:44:20.659Z,60.70
2017-05-18T16:46:48.370Z,60.80
2017-05-18T16:49:15.650Z,61.30
2017-05-18T16:51:42.946Z,61.20
2017-05-18T16:54:10.757Z,61.30
2017-05-18T16:56:38.040Z,61.40
2017-05-18T16:59:04.919Z,61.50
2017-05-18T17:01:32.274Z,61.40
2017-05-18T17:03:59.549Z,61.60
2017-05-18T17:06:26.900Z,61.90
2017-05-18T17:08:53.903Z,61.90
2017-05-18T17:11:21.190Z,61.90
2017-05-18T17:13:48.467Z,62.40
2017-05-18T17:16:15.798Z,62.40
2017-05-18T17:18:43.079Z,62.90
2017-05-18T17:21:10.389Z,63.00
2017-05-18T17:23:37.769Z,63.00
2017-05-18T17:26:05.047Z,63.00
2017-05-18T17:28:32.330Z,63.20
2017-05-18T17:30:59.646Z,63.40
2017-05-18T17:33:26.642Z,63.40
2017-05-18T17:35:53.938Z,63.40
2017-05-18T17:38:21.279Z,63.20
2017-05-18T17:40:48.166Z,63.20
2017-05-18T17:43:15.511Z,62.40
2017-05-18T17:45:42.825Z,62.00
2017-05-18T17:48:10.535Z,61.60
2017-05-18T17:50:37.891Z,61.60
2017-05-18T17:53:05.210Z,60.70
2017-05-18T17:55:32.861Z,59.90
2017-05-18T17:57:59.744Z,59.90
2017-05-18T18:00:27.066Z,58.70
2017-05-18T18:02:54.770Z,58.50
2017-05-18T18:05:22.045Z,58.30
2017-05-18T18:07:49.384Z,58.20
2017-05-18T18:10:16.750Z,58.40
2017-05-18T18:12:44.026Z,59.00
2017-05-18T18:15:11.358Z,59.40
2017-05-18T18:17:38.703Z,60.20
2017-05-18T18:20:06.057Z,61.00
2017-05-18T18:22:33.725Z,61.60
2017-05-18T18:25:01.082Z,62.20
2017-05-18T18:27:28.024Z,62.20
2017-05-18T18:29:54.970Z,62.70
2017-05-18T18:32:22.253Z,63.80
2017-05-18T18:34:49.530Z,64.10
2017-05-18T18:37:17.219Z,64.60
2017-05-18T18:39:44.614Z,65.10
2017-05-18T18:42:11.897Z,65.50
2017-05-18T18:44:39.250Z,65.90
2017-05-18T18:47:06.159Z,65.90
2017-05-18T18:49:33.455Z,66.80
2017-05-18T18:52:00.778Z,67.00
2017-05-18T18:54:28.058Z,67.30
2017-05-18T18:56:55.991Z,67.60
2017-05-18T18:59:23.454Z,67.80
2017-05-18T19:01:50.738Z,68.20
2017-05-18T19:04:18.016Z,68.30
2017-05-18T19:06:45.712Z,68.60
2017-05-18T19:09:13.088Z,68.70
2017-05-18T19:11:40.446Z,68.90
2017-05-18T19:14:07.790Z,69.00
2017-05-18T19:16:35.154Z,69.30
2017-05-18T19:19:02.431Z,69.40
2017-05-18T19:21:29.745Z,69.90
2017-05-18T19:23:57.027Z,70.00
2017-05-18T19:26:24.370Z,70.40
2017-05-18T19:28:51.722Z,70.60
2017-05-18T19:31:19.001Z,70.80
2017-05-18T19:33:46.341Z,71.00
2017-05-18T19:36:13.674Z,71.40
2017-05-18T19:38:40.956Z,71.60
2017-05-18T19:41:08.258Z,71.50
2017-05-18T19:43:35.235Z,71.50
2017-05-18T19:46:02.522Z,71.60
2017-05-18T19:48:29.797Z,71.60
2017-05-18T19:50:57.527Z,71.40
2017-05-18T19:53:24.808Z,71.50
2017-05-18T19:55:52.545Z,71.60
2017-05-18T19:58:19.861Z,71.80
2017-05-18T20:00:47.181Z,71.80
2017-05-18T20:03:14.499Z,71.60
2017-05-18T20:05:41.823Z,71.70
2017-05-18T20:08:09.103Z,71.70
2017-05-18T20:10:36.463Z,71.80
2017-05-18T20:13:03.773Z,71.80
2017-05-18T20:15:30.657Z,71.80
2017-05-18T20:17:57.946Z,71.40
2017-05-18T20:20:25.379Z,71.30
2017-05-18T20:22:52.668Z,71.60
2017-05-18T20:25:19.986Z,71.50
2017-05-18T20:27:47.338Z,71.50
2017-05-18T20:30:14.610Z,71.70
2017-05-18T20:32:41.949Z,71.80
2017-05-18T20:35:09.291Z,71.90
2017-05-18T20:37:36.566Z,72.00
2017-05-18T20:40:03.837Z,72.20
2017-05-18T20:42:31.166Z,72.30
2017-05-18T20:44:58.160Z,72.30
2017-05-18T20:47:25.042Z,72.50
2017-05-18T20:49:52.414Z,72.80
2017-05-18T20:52:19.686Z,73.30
2017-05-18T20:54:46.957Z,73.50
2017-05-18T20:57:14.377Z,73.60
2017-05-18T20:59:41.661Z,73.90
2017-05-18T21:02:08.949Z,73.90
2017-05-18T21:04:35.866Z,73.90
2017-05-18T21:07:03.238Z,74.20
2017-05-18T21:09:30.126Z,74.20
2017-05-18T21:11:57.490Z,74.80
2017-05-18T21:14:24.766Z,75.10
2017-05-18T21:16:52.122Z,75.30
2017-05-18T21:19:19.443Z,75.40
2017-05-18T21:21:46.721Z,75.80
2017-05-18T21:24:13.997Z,76.20
2017-05-18T21:26:40.927Z,76.20
2017-05-18T21:29:08.275Z,75.80
2017-05-18T21:31:35.559Z,75.80
2017-05-18T21:34:02.879Z,75.60
2017-05-18T21:36:30.154Z,75.30
2017-05-18T21:38:57.494Z,75.30
2017-05-18T21:41:24.809Z,75.30
2017-05-18T21:43:52.102Z,75.20
2017-05-18T21:46:19.454Z,75.10
2017-05-18T21:48:46.770Z,75.30
2017-05-18T21:51:14.046Z,75.40
2017-05-18T21:53:41.322Z,75.40
2017-05-18T21:56:08.674Z,75.40
2017-05-18T21:58:35.560Z,75.40
2017-05-18T22:01:02.838Z,75.60
2017-05-18T22:03:30.154Z,75.60
2017-05-18T22:05:57.438Z,75.80
2017-05-18T22:08:25.083Z,75.90
2017-05-18T22:10:52.398Z,76.20
2017-05-18T22:13:19.763Z,76.40
2017-05-18T22:15:47.111Z,76.50
2017-05-18T22:18:14.446Z,76.30
2017-05-18T22:20:41.718Z,76.20
2017-05-18T22:23:08.603Z,76.20
2017-05-18T22:25:35.930Z,76.20
2017-05-18T22:28:03.294Z,76.00
2017-05-18T22:30:30.574Z,76.00
2017-05-18T22:32:57.994Z,76.40
2017-05-18T22:35:25.278Z,76.60
2017-05-18T22:37:52.600Z,77.20
2017-05-18T22:40:19.922Z,77.40
2017-05-18T22:42:47.248Z,77.40
2017-05-18T22:45:14.525Z,77.30
2017-05-18T22:47:42.232Z,77.20
2017-05-18T22:50:09.519Z,77.20
2017-05-18T22:52:36.804Z,77.10
2017-05-18T22:55:04.190Z,76.90
2017-05-18T22:57:31.604Z,76.90
2017-05-18T22:59:58.906Z,77.00
2017-05-18T23:02:26.235Z,77.00
2017-05-18T23:04:53.518Z,77.00
2017-05-18T23:07:20.878Z,77.10
2017-05-18T23:09:47.819Z,77.10
2017-05-18T23:12:15.177Z,76.80
2017-05-18T23:14:42.549Z,76.60
2017-05-18T23:17:09.868Z,76.10
2017-05-18T23:19:37.158Z,76.10
2017-05-18T23:22:04.435Z,76.10
2017-05-18T23:24:32.051Z,76.00
2017-05-18T23:26:59.337Z,75.90
2017-05-18T23:29:26.618Z,76.10
2017-05-18T23:31:54.326Z,76.20
2017-05-18T23:34:21.609Z,76.30
2017-05-18T23:36:48.889Z,76.30
2017-05-18T23:39:16.601Z,76.40
2017-05-18T23:41:43.879Z,76.60
2017-05-18T23:44:11.161Z,76.70
2017-05-18T23:46:38.169Z,76.70
2017-05-18T23:49:05.450Z,76.90
2017-05-18T23:51:32.771Z,76.70
2017-05-18T23:54:00.104Z,76.60
2017-05-18T23:56:27.382Z,76.80
2017-05-18T23:58:54.671Z,78.20
